sensor_id;sensor_type;location;lat;lon;timestamp;noise_LAeq;noise_LA_min;noise_LA_max;noise_LA01;noise_LA95
70740;Laerm;58330;51.888;11.052;2024-03-02T00:01:17;108.81;37.46;113.43;;
70740;Laerm;58330;51.888;11.052;2024-03-02T00:03:44;108.83;38.53;113.38;;
70740;Laerm;58330;51.888;11.052;2024-03-02T00:06:10;108.82;32.84;113.54;;
70740;Laerm;58330;51.888;11.052;2024-03-02T00:08:37;108.81;26.59;113.41;;
70740;Laerm;58330;51.888;11.052;2024-03-02T00:11:05;108.86;37.35;113.36;;
70740;Laerm;58330;51.888;11.052;2024-03-02T00:13:32;108.73;29.18;113.42;;
70740;Laerm;58330;51.888;11.052;2024-03-02T00:16:00;108.81;28.81;113.46;;
70740;Laerm;58330;51.888;11.052;2024-03-02T00:18:27;108.79;48.42;113.28;;
70740;Laerm;58330;51.888;11.052;2024-03-02T00:20:57;108.71;31.69;113.55;;
70740;Laerm;58330;51.888;11.052;2024-03-02T00:23:23;108.79;30.77;113.63;;
70740;Laerm;58330;51.888;11.052;2024-03-02T00:25:50;108.87;36.06;113.49;;
70740;Laerm;58330;51.888;11.052;2024-03-02T00:28:21;108.84;34.52;113.64;;
70740;Laerm;58330;51.888;11.052;2024-03-02T00:30:57;108.87;32.14;113.35;;
70740;Laerm;58330;51.888;11.052;2024-03-02T00:33:25;108.74;27.51;113.29;;
70740;Laerm;58330;51.888;11.052;2024-03-02T00:35:52;108.76;34.06;113.37;;
70740;Laerm;58330;51.888;11.052;2024-03-02T00:38:19;108.79;26.33;113.54;;
70740;Laerm;58330;51.888;11.052;2024-03-02T00:40:45;108.74;29.68;113.46;;
70740;Laerm;58330;51.888;11.052;2024-03-02T00:43:18;108.76;27.60;113.39;;
70740;Laerm;58330;51.888;11.052;2024-03-02T00:45:55;108.79;34.65;113.26;;
70740;Laerm;58330;51.888;11.052;2024-03-02T00:48:22;108.82;34.83;113.56;;
70740;Laerm;58330;51.888;11.052;2024-03-02T00:50:49;108.85;27.02;113.62;;
70740;Laerm;58330;51.888;11.052;2024-03-02T00:53:18;108.77;39.28;113.26;;
70740;Laerm;58330;51.888;11.052;2024-03-02T00:55:48;108.83;42.57;113.22;;
70740;Laerm;58330;51.888;11.052;2024-03-02T00:58:15;108.81;36.58;113.28;;
70740;Laerm;58330;51.888;11.052;2024-03-02T01:00:41;108.76;38.08;113.36;;
70740;Laerm;58330;51.888;11.052;2024-03-02T01:03:09;108.77;34.49;113.17;;
70740;Laerm;58330;51.888;11.052;2024-03-02T01:05:36;108.78;38.90;113.15;;
70740;Laerm;58330;51.888;11.052;2024-03-02T01:08:03;108.74;32.95;113.37;;
70740;Laerm;58330;51.888;11.052;2024-03-02T01:10:29;108.71;37.38;113.45;;
70740;Laerm;58330;51.888;11.052;2024-03-02T01:12:56;108.73;27.44;113.07;;
70740;Laerm;58330;51.888;11.052;2024-03-02T01:15:22;108.71;26.25;113.21;;
70740;Laerm;58330;51.888;11.052;2024-03-02T01:17:49;105.83;30.65;116.76;;
70740;Laerm;58330;51.888;11.052;2024-03-02T01:20:17;54.93;30.35;88.65;;
70740;Laerm;58330;51.888;11.052;2024-03-02T01:22:43;31.96;30.47;33.07;;
70740;Laerm;58330;51.888;11.052;2024-03-02T01:25:10;43.55;30.59;79.49;;
70740;Laerm;58330;51.888;11.052;2024-03-02T01:27:39;31.81;30.49;32.91;;
70740;Laerm;58330;51.888;11.052;2024-03-02T01:30:06;31.81;30.57;33.93;;
70740;Laerm;58330;51.888;11.052;2024-03-02T01:32:33;59.37;30.62;92.94;;
70740;Laerm;58330;51.888;11.052;2024-03-02T01:34:58;79.81;30.60;103.56;;
70740;Laerm;58330;51.888;11.052;2024-03-02T01:37:26;87.87;30.61;107.07;;
70740;Laerm;58330;51.888;11.052;2024-03-02T01:39:53;91.38;30.88;106.58;;
70740;Laerm;58330;51.888;11.052;2024-03-02T01:42:20;97.37;30.65;107.68;;
70740;Laerm;58330;51.888;11.052;2024-03-02T01:44:48;98.88;30.93;107.54;;
70740;Laerm;58330;51.888;11.052;2024-03-02T01:47:14;100.96;31.07;107.97;;
70740;Laerm;58330;51.888;11.052;2024-03-02T01:49:41;102.72;31.27;107.76;;
70740;Laerm;58330;51.888;11.052;2024-03-02T01:52:07;103.93;33.08;114.28;;
70740;Laerm;58330;51.888;11.052;2024-03-02T01:54:35;103.77;38.11;112.49;;
70740;Laerm;58330;51.888;11.052;2024-03-02T01:57:02;103.99;39.92;113.98;;
70740;Laerm;58330;51.888;11.052;2024-03-02T01:59:29;105.66;35.13;115.77;;
70740;Laerm;58330;51.888;11.052;2024-03-02T02:01:56;107.74;37.77;116.10;;
70740;Laerm;58330;51.888;11.052;2024-03-02T02:04:22;111.05;38.52;116.72;;
70740;Laerm;58330;51.888;11.052;2024-03-02T02:06:52;110.41;35.36;116.61;;
70740;Laerm;58330;51.888;11.052;2024-03-02T02:09:19;111.71;38.70;116.92;;
70740;Laerm;58330;51.888;11.052;2024-03-02T02:11:47;109.57;32.59;116.83;;
70740;Laerm;58330;51.888;11.052;2024-03-02T02:14:14;110.00;26.16;116.89;;
70740;Laerm;58330;51.888;11.052;2024-03-02T02:16:41;109.47;35.06;116.54;;
70740;Laerm;58330;51.888;11.052;2024-03-02T02:19:07;109.26;30.34;116.49;;
70740;Laerm;58330;51.888;11.052;2024-03-02T02:21:36;108.05;35.00;115.68;;
70740;Laerm;58330;51.888;11.052;2024-03-02T02:24:01;109.31;46.69;116.55;;
70740;Laerm;58330;51.888;11.052;2024-03-02T02:26:29;107.92;30.72;116.24;;
70740;Laerm;58330;51.888;11.052;2024-03-02T02:28:55;107.10;45.20;112.44;;
70740;Laerm;58330;51.888;11.052;2024-03-02T02:31:22;106.45;49.11;111.31;;
70740;Laerm;58330;51.888;11.052;2024-03-02T02:33:48;107.31;33.45;112.77;;
70740;Laerm;58330;51.888;11.052;2024-03-02T02:36:15;107.27;29.38;112.54;;
70740;Laerm;58330;51.888;11.052;2024-03-02T02:38:43;106.82;37.21;111.73;;
70740;Laerm;58330;51.888;11.052;2024-03-02T02:41:11;106.99;40.14;112.63;;
70740;Laerm;58330;51.888;11.052;2024-03-02T02:43:38;107.15;40.64;112.98;;
70740;Laerm;58330;51.888;11.052;2024-03-02T02:46:05;107.09;30.83;112.19;;
70740;Laerm;58330;51.888;11.052;2024-03-02T02:48:31;106.66;32.20;111.88;;
70740;Laerm;58330;51.888;11.052;2024-03-02T02:50:58;106.77;40.95;112.01;;
70740;Laerm;58330;51.888;11.052;2024-03-02T02:53:24;106.32;36.71;112.08;;
70740;Laerm;58330;51.888;11.052;2024-03-02T02:55:52;106.15;47.88;111.65;;
70740;Laerm;58330;51.888;11.052;2024-03-02T02:58:19;106.08;37.13;111.18;;
70740;Laerm;58330;51.888;11.052;2024-03-02T03:00:46;104.92;40.72;110.41;;
70740;Laerm;58330;51.888;11.052;2024-03-02T03:03:12;105.14;31.31;110.68;;
70740;Laerm;58330;51.888;11.052;2024-03-02T03:05:39;105.18;31.24;111.09;;
70740;Laerm;58330;51.888;11.052;2024-03-02T03:08:06;104.58;31.23;110.16;;
70740;Laerm;58330;51.888;11.052;2024-03-02T03:10:32;104.50;33.41;110.63;;
70740;Laerm;58330;51.888;11.052;2024-03-02T03:13:00;103.80;31.57;110.12;;
70740;Laerm;58330;51.888;11.052;2024-03-02T03:15:27;101.34;35.56;108.21;;
70740;Laerm;58330;51.888;11.052;2024-03-02T03:17:54;97.32;28.80;102.97;;
70740;Laerm;58330;51.888;11.052;2024-03-02T03:20:20;98.89;25.30;103.44;;
70740;Laerm;58330;51.888;11.052;2024-03-02T03:22:48;99.13;63.18;103.44;;
70740;Laerm;58330;51.888;11.052;2024-03-02T03:25:15;99.59;49.55;103.66;;
70740;Laerm;58330;51.888;11.052;2024-03-02T03:27:41;97.35;40.12;102.63;;
70740;Laerm;58330;51.888;11.052;2024-03-02T03:30:10;97.49;26.30;103.25;;
70740;Laerm;58330;51.888;11.052;2024-03-02T03:32:36;98.29;18.63;103.35;;
70740;Laerm;58330;51.888;11.052;2024-03-02T03:35:03;97.95;35.91;103.33;;
70740;Laerm;58330;51.888;11.052;2024-03-02T03:37:30;96.76;25.34;101.72;;
70740;Laerm;58330;51.888;11.052;2024-03-02T03:39:58;97.35;28.93;101.79;;
70740;Laerm;58330;51.888;11.052;2024-03-02T03:42:27;96.73;32.16;100.87;;
70740;Laerm;58330;51.888;11.052;2024-03-02T03:44:53;97.14;32.79;101.26;;
70740;Laerm;58330;51.888;11.052;2024-03-02T03:47:21;96.83;29.51;101.00;;
70740;Laerm;58330;51.888;11.052;2024-03-02T03:49:48;96.71;28.16;100.99;;
70740;Laerm;58330;51.888;11.052;2024-03-02T03:52:14;96.88;23.03;101.09;;
70740;Laerm;58330;51.888;11.052;2024-03-02T03:54:41;97.01;33.57;100.76;;
70740;Laerm;58330;51.888;11.052;2024-03-02T03:57:08;97.93;51.13;101.68;;
70740;Laerm;58330;51.888;11.052;2024-03-02T03:59:34;98.53;63.38;101.76;;
70740;Laerm;58330;51.888;11.052;2024-03-02T04:02:02;98.15;73.53;101.56;;
70740;Laerm;58330;51.888;11.052;2024-03-02T04:04:30;97.63;43.72;101.66;;
70740;Laerm;58330;51.888;11.052;2024-03-02T04:06:56;98.99;54.68;101.88;;
70740;Laerm;58330;51.888;11.052;2024-03-02T04:09:23;97.92;52.22;101.62;;
70740;Laerm;58330;51.888;11.052;2024-03-02T04:11:50;97.35;28.19;100.86;;
70740;Laerm;58330;51.888;11.052;2024-03-02T04:14:17;98.57;45.55;101.92;;
70740;Laerm;58330;51.888;11.052;2024-03-02T04:16:43;99.03;81.18;101.87;;
70740;Laerm;58330;51.888;11.052;2024-03-02T04:19:10;99.82;28.90;101.98;;
70740;Laerm;58330;51.888;11.052;2024-03-02T04:21:38;100.25;87.54;103.81;;
70740;Laerm;58330;51.888;11.052;2024-03-02T04:24:05;98.80;75.91;102.05;;
70740;Laerm;58330;51.888;11.052;2024-03-02T04:26:31;99.18;28.12;102.32;;
70740;Laerm;58330;51.888;11.052;2024-03-02T04:28:58;99.89;80.32;102.15;;
70740;Laerm;58330;51.888;11.052;2024-03-02T04:31:24;100.59;89.03;102.01;;
70740;Laerm;58330;51.888;11.052;2024-03-02T04:33:51;100.28;94.60;102.01;;
70740;Laerm;58330;51.888;11.052;2024-03-02T04:36:17;100.24;91.12;102.05;;
70740;Laerm;58330;51.888;11.052;2024-03-02T04:38:45;100.21;91.82;101.90;;
70740;Laerm;58330;51.888;11.052;2024-03-02T04:41:11;99.66;91.74;101.92;;
70740;Laerm;58330;51.888;11.052;2024-03-02T04:43:38;99.20;91.38;102.04;;
70740;Laerm;58330;51.888;11.052;2024-03-02T04:46:05;100.47;94.37;102.08;;
70740;Laerm;58330;51.888;11.052;2024-03-02T04:48:31;100.48;86.96;101.87;;
70740;Laerm;58330;51.888;11.052;2024-03-02T04:50:58;100.68;96.30;102.07;;
70740;Laerm;58330;51.888;11.052;2024-03-02T04:53:25;100.46;95.65;102.10;;
70740;Laerm;58330;51.888;11.052;2024-03-02T04:55:53;100.38;78.28;102.34;;
70740;Laerm;58330;51.888;11.052;2024-03-02T04:58:53;100.94;95.65;105.71;;
70740;Laerm;58330;51.888;11.052;2024-03-02T05:01:19;102.40;94.39;107.46;;
70740;Laerm;58330;51.888;11.052;2024-03-02T05:03:46;107.54;44.09;115.34;;
70740;Laerm;58330;51.888;11.052;2024-03-02T05:06:12;80.75;30.11;102.14;;
70740;Laerm;58330;51.888;11.052;2024-03-02T05:08:39;31.57;29.61;42.25;;
70740;Laerm;58330;51.888;11.052;2024-03-02T05:11:06;34.00;29.86;52.15;;
70740;Laerm;58330;51.888;11.052;2024-03-02T05:13:50;40.25;29.23;60.94;;
70740;Laerm;58330;51.888;11.052;2024-03-02T05:16:17;36.18;29.61;55.09;;
70740;Laerm;58330;51.888;11.052;2024-03-02T05:18:44;49.10;30.33;63.42;;
70740;Laerm;58330;51.888;11.052;2024-03-02T05:21:10;60.36;35.33;64.34;;
70740;Laerm;58330;51.888;11.052;2024-03-02T05:23:37;61.84;53.99;64.46;;
70740;Laerm;58330;51.888;11.052;2024-03-02T05:26:03;61.32;38.18;64.00;;
70740;Laerm;58330;51.888;11.052;2024-03-02T05:28:31;61.62;35.96;85.15;;
70740;Laerm;58330;51.888;11.052;2024-03-02T05:30:58;58.92;50.13;63.79;;
70740;Laerm;58330;51.888;11.052;2024-03-02T05:33:24;62.00;50.64;93.00;;
70740;Laerm;58330;51.888;11.052;2024-03-02T05:35:50;59.95;50.81;86.30;;
70740;Laerm;58330;51.888;11.052;2024-03-02T05:38:17;75.27;50.64;98.39;;
70740;Laerm;58330;51.888;11.052;2024-03-02T05:40:43;73.12;50.57;97.17;;
70740;Laerm;58330;51.888;11.052;2024-03-02T05:43:10;69.83;50.30;97.80;;
70740;Laerm;58330;51.888;11.052;2024-03-02T05:45:38;81.27;50.17;102.64;;
70740;Laerm;58330;51.888;11.052;2024-03-02T05:48:05;75.45;50.34;100.04;;
70740;Laerm;58330;51.888;11.052;2024-03-02T05:50:32;68.59;50.10;96.49;;
70740;Laerm;58330;51.888;11.052;2024-03-02T05:52:59;51.97;49.95;57.49;;
70740;Laerm;58330;51.888;11.052;2024-03-02T05:55:25;52.47;50.05;60.01;;
70740;Laerm;58330;51.888;11.052;2024-03-02T05:57:52;53.19;50.24;62.02;;
70740;Laerm;58330;51.888;11.052;2024-03-02T06:00:38;52.00;50.15;57.52;;
70740;Laerm;58330;51.888;11.052;2024-03-02T06:03:04;52.15;50.02;60.02;;
70740;Laerm;58330;51.888;11.052;2024-03-02T06:05:33;64.11;49.97;93.22;;
70740;Laerm;58330;51.888;11.052;2024-03-02T06:07:59;75.72;50.06;97.54;;
70740;Laerm;58330;51.888;11.052;2024-03-02T06:10:25;66.82;50.04;92.96;;
70740;Laerm;58330;51.888;11.052;2024-03-02T06:12:52;97.76;50.97;109.16;;
70740;Laerm;58330;51.888;11.052;2024-03-02T06:15:18;103.10;63.92;109.79;;
70740;Laerm;58330;51.888;11.052;2024-03-02T06:17:46;102.07;50.56;110.43;;
70740;Laerm;58330;51.888;11.052;2024-03-02T06:20:13;104.93;84.26;111.75;;
70740;Laerm;58330;51.888;11.052;2024-03-02T06:22:39;106.26;83.68;111.54;;
70740;Laerm;58330;51.888;11.052;2024-03-02T06:25:06;108.31;97.52;111.42;;
70740;Laerm;58330;51.888;11.052;2024-03-02T06:27:32;108.50;97.96;111.82;;
70740;Laerm;58330;51.888;11.052;2024-03-02T06:29:59;108.52;97.66;112.24;;
70740;Laerm;58330;51.888;11.052;2024-03-02T06:32:25;107.27;96.72;112.16;;
70740;Laerm;58330;51.888;11.052;2024-03-02T06:34:53;105.09;96.22;112.14;;
70740;Laerm;58330;51.888;11.052;2024-03-02T06:37:20;102.13;96.63;111.59;;
70740;Laerm;58330;51.888;11.052;2024-03-02T06:39:46;99.83;95.69;109.04;;
70740;Laerm;58330;51.888;11.052;2024-03-02T06:42:13;99.77;94.21;104.01;;
70740;Laerm;58330;51.888;11.052;2024-03-02T06:44:39;99.59;92.13;103.33;;
70740;Laerm;58330;51.888;11.052;2024-03-02T06:47:05;99.37;90.56;102.33;;
70740;Laerm;58330;51.888;11.052;2024-03-02T06:49:32;98.19;90.14;101.72;;
70740;Laerm;58330;51.888;11.052;2024-03-02T06:52:01;97.62;90.58;101.92;;
70740;Laerm;58330;51.888;11.052;2024-03-02T06:54:28;97.41;90.25;102.10;;
70740;Laerm;58330;51.888;11.052;2024-03-02T06:56:54;97.21;90.34;101.68;;
70740;Laerm;58330;51.888;11.052;2024-03-02T06:59:21;97.61;90.32;101.79;;
70740;Laerm;58330;51.888;11.052;2024-03-02T07:01:47;97.99;90.44;101.69;;
70740;Laerm;58330;51.888;11.052;2024-03-02T07:04:14;96.92;90.38;101.43;;
70740;Laerm;58330;51.888;11.052;2024-03-02T07:06:40;97.04;90.20;101.78;;
70740;Laerm;58330;51.888;11.052;2024-03-02T07:09:08;98.92;90.46;102.07;;
70740;Laerm;58330;51.888;11.052;2024-03-02T07:11:36;99.47;91.64;102.28;;
70740;Laerm;58330;51.888;11.052;2024-03-02T07:14:02;99.33;96.07;102.77;;
70740;Laerm;58330;51.888;11.052;2024-03-02T07:16:28;107.04;96.25;114.35;;
70740;Laerm;58330;51.888;11.052;2024-03-02T07:18:57;103.76;50.64;114.14;;
70740;Laerm;58330;51.888;11.052;2024-03-02T07:21:24;103.20;50.47;113.59;;
70740;Laerm;58330;51.888;11.052;2024-03-02T07:23:50;106.57;84.01;114.25;;
70740;Laerm;58330;51.888;11.052;2024-03-02T07:26:18;104.33;50.98;114.03;;
70740;Laerm;58330;51.888;11.052;2024-03-02T07:28:45;104.63;50.81;113.61;;
70740;Laerm;58330;51.888;11.052;2024-03-02T07:31:13;111.15;79.56;114.91;;
70740;Laerm;58330;51.888;11.052;2024-03-02T07:33:39;111.94;102.02;114.97;;
70740;Laerm;58330;51.888;11.052;2024-03-02T07:36:06;109.42;97.60;114.82;;
70740;Laerm;58330;51.888;11.052;2024-03-02T07:38:33;107.36;96.77;115.09;;
70740;Laerm;58330;51.888;11.052;2024-03-02T07:41:00;104.09;96.36;113.62;;
70740;Laerm;58330;51.888;11.052;2024-03-02T07:43:28;101.07;96.14;112.16;;
70740;Laerm;58330;51.888;11.052;2024-03-02T07:45:54;99.35;96.18;106.26;;
70740;Laerm;58330;51.888;11.052;2024-03-02T07:48:25;99.22;95.38;104.81;;
70740;Laerm;58330;51.888;11.052;2024-03-02T07:50:52;99.14;96.10;103.22;;
70740;Laerm;58330;51.888;11.052;2024-03-02T07:53:18;99.00;96.17;103.25;;
70740;Laerm;58330;51.888;11.052;2024-03-02T07:55:45;105.81;50.40;114.84;;
70740;Laerm;58330;51.888;11.052;2024-03-02T07:58:11;99.84;50.53;112.15;;
70740;Laerm;58330;51.888;11.052;2024-03-02T08:00:39;85.20;50.34;104.92;;
70740;Laerm;58330;51.888;11.052;2024-03-02T08:03:06;52.33;50.46;56.41;;
70740;Laerm;58330;51.888;11.052;2024-03-02T08:05:36;54.47;50.88;63.11;;
70740;Laerm;58330;51.888;11.052;2024-03-02T08:08:02;58.46;51.23;65.53;;
70740;Laerm;58330;51.888;11.052;2024-03-02T08:10:29;60.67;34.16;66.08;;
70740;Laerm;58330;51.888;11.052;2024-03-02T08:12:56;35.26;30.83;46.07;;
70740;Laerm;58330;51.888;11.052;2024-03-02T08:15:22;44.07;31.57;63.60;;
70740;Laerm;58330;51.888;11.052;2024-03-02T08:17:50;43.03;31.67;63.25;;
70740;Laerm;58330;51.888;11.052;2024-03-02T08:20:17;61.52;37.68;66.12;;
70740;Laerm;58330;51.888;11.052;2024-03-02T08:22:44;99.34;31.05;112.15;;
70740;Laerm;58330;51.888;11.052;2024-03-02T08:25:12;105.78;79.72;111.66;;
70740;Laerm;58330;51.888;11.052;2024-03-02T08:27:39;100.22;31.24;111.24;;
70740;Laerm;58330;51.888;11.052;2024-03-02T08:30:06;59.75;30.73;94.03;;
70740;Laerm;58330;51.888;11.052;2024-03-02T08:32:33;34.87;29.62;65.05;;
70740;Laerm;58330;51.888;11.052;2024-03-02T08:35:01;95.72;29.30;113.93;;
70740;Laerm;58330;51.888;11.052;2024-03-02T08:37:27;92.92;-329.56;113.77;;
70740;Laerm;58330;51.888;11.052;2024-03-02T08:39:54;5.00;5.00;5.00;;
70740;Laerm;58330;51.888;11.052;2024-03-02T08:42:20;62.80;5.00;96.13;;
70740;Laerm;58330;51.888;11.052;2024-03-02T08:44:47;49.92;29.16;62.16;;
70740;Laerm;58330;51.888;11.052;2024-03-02T08:47:14;30.27;29.05;31.69;;
70740;Laerm;58330;51.888;11.052;2024-03-02T08:49:40;30.24;29.02;31.64;;
70740;Laerm;58330;51.888;11.052;2024-03-02T08:52:08;29.96;28.53;31.47;;
70740;Laerm;58330;51.888;11.052;2024-03-02T08:54:35;29.91;28.51;31.09;;
70740;Laerm;58330;51.888;11.052;2024-03-02T08:57:01;30.11;28.79;31.42;;
70740;Laerm;58330;51.888;11.052;2024-03-02T08:59:28;30.37;28.82;31.63;;
70740;Laerm;58330;51.888;11.052;2024-03-02T09:01:54;30.33;29.01;31.81;;
70740;Laerm;58330;51.888;11.052;2024-03-02T09:04:20;30.31;28.91;31.69;;
70740;Laerm;58330;51.888;11.052;2024-03-02T09:06:47;30.26;28.61;31.49;;
70740;Laerm;58330;51.888;11.052;2024-03-02T09:09:15;30.21;28.62;31.53;;
70740;Laerm;58330;51.888;11.052;2024-03-02T09:11:41;30.88;28.92;33.23;;
70740;Laerm;58330;51.888;11.052;2024-03-02T09:14:08;94.78;31.13;109.19;;
70740;Laerm;58330;51.888;11.052;2024-03-02T09:16:34;101.05;29.08;109.30;;
70740;Laerm;58330;51.888;11.052;2024-03-02T09:19:01;71.08;-331.32;96.14;;
70740;Laerm;58330;51.888;11.052;2024-03-02T09:21:27;71.38;-329.56;96.13;;
70740;Laerm;58330;51.888;11.052;2024-03-02T09:23:55;5.00;5.00;5.00;;
70740;Laerm;58330;51.888;11.052;2024-03-02T09:26:23;5.00;5.00;5.00;;
70740;Laerm;58330;51.888;11.052;2024-03-02T09:28:49;5.00;5.00;5.00;;
70740;Laerm;58330;51.888;11.052;2024-03-02T09:31:16;5.00;5.00;5.00;;
70740;Laerm;58330;51.888;11.052;2024-03-02T09:33:43;59.91;5.00;96.14;;
70740;Laerm;58330;51.888;11.052;2024-03-02T09:36:16;28.56;27.27;29.82;;
70740;Laerm;58330;51.888;11.052;2024-03-02T09:38:42;28.44;26.90;29.65;;
70740;Laerm;58330;51.888;11.052;2024-03-02T09:41:09;28.46;27.16;29.59;;
70740;Laerm;58330;51.888;11.052;2024-03-02T09:43:37;28.45;27.27;29.58;;
70740;Laerm;58330;51.888;11.052;2024-03-02T09:46:03;28.48;27.32;29.67;;
70740;Laerm;58330;51.888;11.052;2024-03-02T09:48:31;28.44;27.25;29.60;;
70740;Laerm;58330;51.888;11.052;2024-03-02T09:50:58;28.46;27.29;29.79;;
70740;Laerm;58330;51.888;11.052;2024-03-02T09:53:25;28.48;27.13;29.64;;
70740;Laerm;58330;51.888;11.052;2024-03-02T09:55:52;28.56;27.09;29.65;;
70740;Laerm;58330;51.888;11.052;2024-03-02T09:58:19;28.54;27.09;30.01;;
70740;Laerm;58330;51.888;11.052;2024-03-02T10:00:47;28.58;27.36;29.72;;
70740;Laerm;58330;51.888;11.052;2024-03-02T10:03:14;28.54;27.36;29.85;;
70740;Laerm;58330;51.888;11.052;2024-03-02T10:05:41;28.55;27.41;29.79;;
70740;Laerm;58330;51.888;11.052;2024-03-02T10:08:08;28.58;27.25;29.96;;
70740;Laerm;58330;51.888;11.052;2024-03-02T10:10:35;28.61;27.42;29.96;;
70740;Laerm;58330;51.888;11.052;2024-03-02T10:13:05;28.58;27.10;29.73;;
70740;Laerm;58330;51.888;11.052;2024-03-02T10:15:32;28.48;27.27;29.81;;
70740;Laerm;58330;51.888;11.052;2024-03-02T10:17:59;28.46;26.98;29.87;;
70740;Laerm;58330;51.888;11.052;2024-03-02T10:20:26;28.50;26.99;29.58;;
70740;Laerm;58330;51.888;11.052;2024-03-02T10:22:54;28.52;27.07;29.70;;
70740;Laerm;58330;51.888;11.052;2024-03-02T10:25:29;28.56;27.04;29.92;;
70740;Laerm;58330;51.888;11.052;2024-03-02T10:27:57;28.58;27.20;29.66;;
70740;Laerm;58330;51.888;11.052;2024-03-02T10:30:23;28.60;27.40;29.87;;
70740;Laerm;58330;51.888;11.052;2024-03-02T10:32:50;106.33;27.21;114.03;;
70740;Laerm;58330;51.888;11.052;2024-03-02T10:35:18;102.62;-323.91;113.57;;
70740;Laerm;58330;51.888;11.052;2024-03-02T10:37:46;5.00;5.00;5.00;;
70740;Laerm;58330;51.888;11.052;2024-03-02T10:40:13;5.00;5.00;5.00;;
70740;Laerm;58330;51.888;11.052;2024-03-02T10:42:40;5.00;5.00;5.00;;
70740;Laerm;58330;51.888;11.052;2024-03-02T10:45:08;5.00;5.00;5.00;;
70740;Laerm;58330;51.888;11.052;2024-03-02T10:47:35;5.00;5.00;5.00;;
70740;Laerm;58330;51.888;11.052;2024-03-02T10:50:02;5.00;5.00;5.00;;
70740;Laerm;58330;51.888;11.052;2024-03-02T10:52:34;5.00;5.00;5.00;;
70740;Laerm;58330;51.888;11.052;2024-03-02T10:55:01;5.00;5.00;5.00;;
70740;Laerm;58330;51.888;11.052;2024-03-02T10:57:32;5.00;5.00;5.00;;
70740;Laerm;58330;51.888;11.052;2024-03-02T11:00:01;5.00;5.00;5.00;;
70740;Laerm;58330;51.888;11.052;2024-03-02T11:02:28;5.00;5.00;5.00;;
70740;Laerm;58330;51.888;11.052;2024-03-02T11:04:56;5.00;5.00;5.00;;
70740;Laerm;58330;51.888;11.052;2024-03-02T11:07:22;5.00;5.00;5.00;;
70740;Laerm;58330;51.888;11.052;2024-03-02T11:09:54;5.00;5.00;5.00;;
70740;Laerm;58330;51.888;11.052;2024-03-02T11:12:23;5.00;5.00;5.00;;
70740;Laerm;58330;51.888;11.052;2024-03-02T11:14:54;5.00;5.00;5.00;;
70740;Laerm;58330;51.888;11.052;2024-03-02T11:17:21;5.00;5.00;5.00;;
70740;Laerm;58330;51.888;11.052;2024-03-02T11:19:48;5.00;5.00;5.00;;
70740;Laerm;58330;51.888;11.052;2024-03-02T11:22:15;5.00;5.00;5.00;;
70740;Laerm;58330;51.888;11.052;2024-03-02T11:24:47;5.00;5.00;5.00;;
70740;Laerm;58330;51.888;11.052;2024-03-02T11:27:20;5.00;5.00;5.00;;
70740;Laerm;58330;51.888;11.052;2024-03-02T11:30:03;5.00;5.00;5.00;;
70740;Laerm;58330;51.888;11.052;2024-03-02T11:32:30;5.00;5.00;5.00;;
70740;Laerm;58330;51.888;11.052;2024-03-02T11:34:56;5.00;5.00;5.00;;
70740;Laerm;58330;51.888;11.052;2024-03-02T11:37:23;5.00;5.00;5.00;;
70740;Laerm;58330;51.888;11.052;2024-03-02T11:39:52;5.00;5.00;5.00;;
70740;Laerm;58330;51.888;11.052;2024-03-02T11:42:19;5.00;5.00;5.00;;
70740;Laerm;58330;51.888;11.052;2024-03-02T11:44:46;5.00;5.00;5.00;;
70740;Laerm;58330;51.888;11.052;2024-03-02T11:47:15;5.00;5.00;5.00;;
70740;Laerm;58330;51.888;11.052;2024-03-02T11:49:42;5.00;5.00;5.00;;
70740;Laerm;58330;51.888;11.052;2024-03-02T11:52:10;5.00;5.00;5.00;;
70740;Laerm;58330;51.888;11.052;2024-03-02T11:54:37;5.00;5.00;5.00;;
70740;Laerm;58330;51.888;11.052;2024-03-02T11:57:05;5.00;5.00;5.00;;
70740;Laerm;58330;51.888;11.052;2024-03-02T11:59:32;5.00;5.00;5.00;;
70740;Laerm;58330;51.888;11.052;2024-03-02T12:01:59;5.00;5.00;5.00;;
70740;Laerm;58330;51.888;11.052;2024-03-02T12:04:26;5.00;5.00;5.00;;
70740;Laerm;58330;51.888;11.052;2024-03-02T12:06:54;5.00;5.00;5.00;;
70740;Laerm;58330;51.888;11.052;2024-03-02T12:09:20;5.00;5.00;5.00;;
70740;Laerm;58330;51.888;11.052;2024-03-02T12:11:47;5.00;5.00;5.00;;
70740;Laerm;58330;51.888;11.052;2024-03-02T12:14:13;5.00;5.00;5.00;;
70740;Laerm;58330;51.888;11.052;2024-03-02T12:16:43;5.00;5.00;5.00;;
70740;Laerm;58330;51.888;11.052;2024-03-02T12:19:09;5.00;5.00;5.00;;
70740;Laerm;58330;51.888;11.052;2024-03-02T12:21:37;5.00;5.00;5.00;;
70740;Laerm;58330;51.888;11.052;2024-03-02T12:24:04;5.00;5.00;5.00;;
70740;Laerm;58330;51.888;11.052;2024-03-02T12:26:30;5.00;5.00;5.00;;
70740;Laerm;58330;51.888;11.052;2024-03-02T12:28:57;5.00;5.00;5.00;;
70740;Laerm;58330;51.888;11.052;2024-03-02T12:31:24;5.00;5.00;5.00;;
70740;Laerm;58330;51.888;11.052;2024-03-02T12:33:50;5.00;5.00;5.00;;
70740;Laerm;58330;51.888;11.052;2024-03-02T12:36:17;5.00;5.00;5.00;;
70740;Laerm;58330;51.888;11.052;2024-03-02T12:38:45;5.00;5.00;5.00;;
70740;Laerm;58330;51.888;11.052;2024-03-02T12:41:14;5.00;5.00;5.00;;
70740;Laerm;58330;51.888;11.052;2024-03-02T12:43:40;5.00;5.00;5.00;;
70740;Laerm;58330;51.888;11.052;2024-03-02T12:46:07;5.00;5.00;5.00;;
70740;Laerm;58330;51.888;11.052;2024-03-02T12:48:34;5.00;5.00;5.00;;
70740;Laerm;58330;51.888;11.052;2024-03-02T12:51:01;5.00;5.00;5.00;;
70740;Laerm;58330;51.888;11.052;2024-03-02T12:53:27;5.00;5.00;5.00;;
70740;Laerm;58330;51.888;11.052;2024-03-02T12:55:56;5.00;5.00;5.00;;
70740;Laerm;58330;51.888;11.052;2024-03-02T12:58:23;5.00;5.00;5.00;;
70740;Laerm;58330;51.888;11.052;2024-03-02T13:00:49;5.00;5.00;5.00;;
70740;Laerm;58330;51.888;11.052;2024-03-02T13:03:17;5.00;5.00;5.00;;
70740;Laerm;58330;51.888;11.052;2024-03-02T13:05:48;5.00;5.00;5.00;;
70740;Laerm;58330;51.888;11.052;2024-03-02T13:08:14;5.00;5.00;5.00;;
70740;Laerm;58330;51.888;11.052;2024-03-02T13:10:41;5.00;5.00;5.00;;
70740;Laerm;58330;51.888;11.052;2024-03-02T13:13:09;5.00;5.00;5.00;;
70740;Laerm;58330;51.888;11.052;2024-03-02T13:15:35;5.00;5.00;5.00;;
70740;Laerm;58330;51.888;11.052;2024-03-02T13:18:02;5.00;5.00;5.00;;
70740;Laerm;58330;51.888;11.052;2024-03-02T13:20:30;5.00;5.00;5.00;;
70740;Laerm;58330;51.888;11.052;2024-03-02T13:22:57;5.00;5.00;5.00;;
70740;Laerm;58330;51.888;11.052;2024-03-02T13:25:24;5.00;5.00;5.00;;
70740;Laerm;58330;51.888;11.052;2024-03-02T13:27:51;5.00;5.00;5.00;;
70740;Laerm;58330;51.888;11.052;2024-03-02T13:30:19;5.00;5.00;5.00;;